sensor_id;sensor_type;location;lat;lon;timestamp;P1;durP1;ratioP1;P2;durP2;ratioP2
46377;SDS011;32083;47.360;9.650;2023-11-19T00:14:59;1.42;;;0.90;;
46377;SDS011;32083;47.360;9.650;2023-11-19T01:11:48;1.38;;;0.60;;
46377;SDS011;32083;47.360;9.650;2023-11-19T01:15:14;0.95;;;0.63;;
46377;SDS011;32083;47.360;9.650;2023-11-19T02:10:28;1.10;;;0.70;;
46377;SDS011;32083;47.360;9.650;2023-11-19T02:14:03;0.70;;;0.50;;
46377;SDS011;32083;47.360;9.650;2023-11-19T03:15:59;1.05;;;0.70;;
46377;SDS011;32083;47.360;9.650;2023-11-19T03:54:50;2.83;;;1.45;;
46377;SDS011;32083;47.360;9.650;2023-11-19T03:58:01;5.50;;;2.03;;
46377;SDS011;32083;47.360;9.650;2023-11-19T04:12:20;2.10;;;1.70;;
46377;SDS011;32083;47.360;9.650;2023-11-19T05:01:47;1.05;;;0.95;;
46377;SDS011;32083;47.360;9.650;2023-11-19T05:04:13;0.80;;;0.52;;
46377;SDS011;32083;47.360;9.650;2023-11-19T05:06:40;1.15;;;0.82;;
46377;SDS011;32083;47.360;9.650;2023-11-19T05:09:07;1.45;;;0.77;;
46377;SDS011;32083;47.360;9.650;2023-11-19T05:11:34;1.30;;;0.70;;
46377;SDS011;32083;47.360;9.650;2023-11-19T05:14:02;1.13;;;0.60;;
46377;SDS011;32083;47.360;9.650;2023-11-19T05:16:31;1.77;;;0.80;;
46377;SDS011;32083;47.360;9.650;2023-11-19T05:18:57;0.77;;;0.60;;
46377;SDS011;32083;47.360;9.650;2023-11-19T05:21:23;2.58;;;0.60;;
46377;SDS011;32083;47.360;9.650;2023-11-19T05:23:49;0.70;;;0.60;;
46377;SDS011;32083;47.360;9.650;2023-11-19T05:26:22;1.48;;;0.98;;
46377;SDS011;32083;47.360;9.650;2023-11-19T05:28:49;1.73;;;0.60;;
46377;SDS011;32083;47.360;9.650;2023-11-19T05:31:16;1.40;;;0.88;;
46377;SDS011;32083;47.360;9.650;2023-11-19T05:33:43;1.00;;;0.82;;
46377;SDS011;32083;47.360;9.650;2023-11-19T05:36:11;0.95;;;0.77;;
46377;SDS011;32083;47.360;9.650;2023-11-19T05:38:38;1.73;;;0.88;;
46377;SDS011;32083;47.360;9.650;2023-11-19T05:41:04;3.55;;;0.90;;
46377;SDS011;32083;47.360;9.650;2023-11-19T05:43:31;1.40;;;0.98;;
46377;SDS011;32083;47.360;9.650;2023-11-19T05:45:57;2.13;;;1.27;;
46377;SDS011;32083;47.360;9.650;2023-11-19T05:48:25;1.73;;;1.20;;
46377;SDS011;32083;47.360;9.650;2023-11-19T05:50:51;1.67;;;1.02;;
46377;SDS011;32083;47.360;9.650;2023-11-19T05:53:18;1.83;;;1.15;;
46377;SDS011;32083;47.360;9.650;2023-11-19T05:55:44;1.55;;;0.93;;
46377;SDS011;32083;47.360;9.650;2023-11-19T05:58:29;1.77;;;1.17;;
46377;SDS011;32083;47.360;9.650;2023-11-19T06:00:56;2.35;;;1.63;;
46377;SDS011;32083;47.360;9.650;2023-11-19T06:03:22;6.90;;;2.17;;
46377;SDS011;32083;47.360;9.650;2023-11-19T06:05:48;2.85;;;1.60;;
46377;SDS011;32083;47.360;9.650;2023-11-19T06:08:14;1.50;;;1.33;;
46377;SDS011;32083;47.360;9.650;2023-11-19T06:10:40;2.13;;;1.70;;
46377;SDS011;32083;47.360;9.650;2023-11-19T06:13:07;2.70;;;1.70;;
46377;SDS011;32083;47.360;9.650;2023-11-19T06:15:35;2.35;;;2.10;;
46377;SDS011;32083;47.360;9.650;2023-11-19T06:18:01;1.77;;;1.48;;
46377;SDS011;32083;47.360;9.650;2023-11-19T06:20:31;2.08;;;1.50;;
46377;SDS011;32083;47.360;9.650;2023-11-19T06:22:58;2.72;;;1.40;;
46377;SDS011;32083;47.360;9.650;2023-11-19T06:25:24;2.65;;;1.30;;
46377;SDS011;32083;47.360;9.650;2023-11-19T06:28:04;2.17;;;1.40;;
46377;SDS011;32083;47.360;9.650;2023-11-19T06:30:30;2.80;;;1.80;;
46377;SDS011;32083;47.360;9.650;2023-11-19T06:32:57;2.80;;;2.40;;
46377;SDS011;32083;47.360;9.650;2023-11-19T06:35:24;3.33;;;1.70;;
46377;SDS011;32083;47.360;9.650;2023-11-19T06:37:50;5.40;;;4.07;;
46377;SDS011;32083;47.360;9.650;2023-11-19T06:40:16;3.22;;;2.50;;
46377;SDS011;32083;47.360;9.650;2023-11-19T06:42:42;2.55;;;1.60;;
46377;SDS011;32083;47.360;9.650;2023-11-19T06:45:08;2.67;;;1.80;;
46377;SDS011;32083;47.360;9.650;2023-11-19T06:47:34;2.38;;;2.08;;
46377;SDS011;32083;47.360;9.650;2023-11-19T06:50:00;1.75;;;1.50;;
46377;SDS011;32083;47.360;9.650;2023-11-19T06:52:28;3.42;;;1.73;;
46377;SDS011;32083;47.360;9.650;2023-11-19T06:54:55;5.63;;;2.10;;
46377;SDS011;32083;47.360;9.650;2023-11-19T06:57:22;2.33;;;1.52;;
46377;SDS011;32083;47.360;9.650;2023-11-19T06:59:48;1.85;;;1.30;;
46377;SDS011;32083;47.360;9.650;2023-11-19T07:02:14;2.92;;;2.33;;
46377;SDS011;32083;47.360;9.650;2023-11-19T07:04:40;3.10;;;2.00;;
46377;SDS011;32083;47.360;9.650;2023-11-19T07:07:06;2.65;;;1.85;;
46377;SDS011;32083;47.360;9.650;2023-11-19T07:09:32;2.10;;;1.90;;
46377;SDS011;32083;47.360;9.650;2023-11-19T07:11:58;2.17;;;1.98;;
46377;SDS011;32083;47.360;9.650;2023-11-19T07:14:26;2.83;;;2.30;;
46377;SDS011;32083;47.360;9.650;2023-11-19T07:16:53;2.30;;;1.83;;
46377;SDS011;32083;47.360;9.650;2023-11-19T07:19:20;3.22;;;2.03;;
46377;SDS011;32083;47.360;9.650;2023-11-19T07:21:46;2.72;;;1.90;;
46377;SDS011;32083;47.360;9.650;2023-11-19T07:24:12;3.05;;;1.80;;
46377;SDS011;32083;47.360;9.650;2023-11-19T07:26:42;4.38;;;1.95;;
46377;SDS011;32083;47.360;9.650;2023-11-19T07:29:09;2.70;;;1.60;;
46377;SDS011;32083;47.360;9.650;2023-11-19T07:31:36;2.42;;;1.60;;
46377;SDS011;32083;47.360;9.650;2023-11-19T07:34:02;3.03;;;2.00;;
46377;SDS011;32083;47.360;9.650;2023-11-19T07:36:28;2.80;;;1.80;;
46377;SDS011;32083;47.360;9.650;2023-11-19T07:38:54;3.63;;;2.63;;
46377;SDS011;32083;47.360;9.650;2023-11-19T07:41:22;2.15;;;1.85;;
46377;SDS011;32083;47.360;9.650;2023-11-19T07:43:50;3.13;;;2.10;;
46377;SDS011;32083;47.360;9.650;2023-11-19T07:46:17;3.35;;;2.80;;
46377;SDS011;32083;47.360;9.650;2023-11-19T07:48:46;4.22;;;2.55;;
46377;SDS011;32083;47.360;9.650;2023-11-19T07:51:12;3.72;;;2.47;;
46377;SDS011;32083;47.360;9.650;2023-11-19T07:53:42;4.95;;;3.67;;
46377;SDS011;32083;47.360;9.650;2023-11-19T07:56:08;3.38;;;2.05;;
46377;SDS011;32083;47.360;9.650;2023-11-19T07:58:34;5.43;;;2.63;;
46377;SDS011;32083;47.360;9.650;2023-11-19T08:01:00;5.43;;;2.63;;
46377;SDS011;32083;47.360;9.650;2023-11-19T08:03:29;2.28;;;1.98;;
46377;SDS011;32083;47.360;9.650;2023-11-19T08:05:55;2.00;;;1.63;;
46377;SDS011;32083;47.360;9.650;2023-11-19T08:08:22;3.53;;;2.40;;
46377;SDS011;32083;47.360;9.650;2023-11-19T08:10:47;2.60;;;1.83;;
46377;SDS011;32083;47.360;9.650;2023-11-19T08:13:14;2.58;;;2.05;;
46377;SDS011;32083;47.360;9.650;2023-11-19T08:15:40;3.72;;;2.55;;
46377;SDS011;32083;47.360;9.650;2023-11-19T08:18:06;2.22;;;1.85;;
46377;SDS011;32083;47.360;9.650;2023-11-19T08:20:32;2.80;;;2.05;;
46377;SDS011;32083;47.360;9.650;2023-11-19T08:22:59;2.72;;;2.08;;
46377;SDS011;32083;47.360;9.650;2023-11-19T08:25:25;3.03;;;2.33;;
46377;SDS011;32083;47.360;9.650;2023-11-19T08:27:51;2.90;;;2.47;;
46377;SDS011;32083;47.360;9.650;2023-11-19T08:30:18;3.00;;;2.35;;
46377;SDS011;32083;47.360;9.650;2023-11-19T08:32:44;2.45;;;2.08;;
46377;SDS011;32083;47.360;9.650;2023-11-19T08:35:10;2.90;;;2.60;;
46377;SDS011;32083;47.360;9.650;2023-11-19T08:37:36;2.90;;;2.20;;
46377;SDS011;32083;47.360;9.650;2023-11-19T08:40:03;2.92;;;2.35;;
46377;SDS011;32083;47.360;9.650;2023-11-19T08:42:30;3.78;;;2.83;;
46377;SDS011;32083;47.360;9.650;2023-11-19T08:44:56;2.85;;;2.55;;
46377;SDS011;32083;47.360;9.650;2023-11-19T08:47:22;3.92;;;3.10;;
46377;SDS011;32083;47.360;9.650;2023-11-19T08:49:51;4.03;;;3.20;;
46377;SDS011;32083;47.360;9.650;2023-11-19T08:52:18;3.50;;;2.50;;
46377;SDS011;32083;47.360;9.650;2023-11-19T08:54:44;4.43;;;3.15;;
46377;SDS011;32083;47.360;9.650;2023-11-19T08:57:10;4.28;;;3.83;;
46377;SDS011;32083;47.360;9.650;2023-11-19T08:59:36;4.38;;;3.05;;
46377;SDS011;32083;47.360;9.650;2023-11-19T09:02:05;3.40;;;2.80;;
46377;SDS011;32083;47.360;9.650;2023-11-19T09:04:32;4.90;;;2.72;;
46377;SDS011;32083;47.360;9.650;2023-11-19T09:06:58;5.15;;;2.42;;
46377;SDS011;32083;47.360;9.650;2023-11-19T09:09:24;4.65;;;3.03;;
46377;SDS011;32083;47.360;9.650;2023-11-19T09:11:50;3.70;;;2.88;;
46377;SDS011;32083;47.360;9.650;2023-11-19T09:14:16;3.50;;;2.83;;
46377;SDS011;32083;47.360;9.650;2023-11-19T09:16:43;5.13;;;3.13;;
46377;SDS011;32083;47.360;9.650;2023-11-19T09:19:09;3.30;;;3.00;;
46377;SDS011;32083;47.360;9.650;2023-11-19T09:21:35;4.82;;;3.40;;
46377;SDS011;32083;47.360;9.650;2023-11-19T09:24:04;3.83;;;3.42;;
46377;SDS011;32083;47.360;9.650;2023-11-19T09:26:30;3.85;;;2.90;;
46377;SDS011;32083;47.360;9.650;2023-11-19T09:28:56;3.47;;;3.17;;
46377;SDS011;32083;47.360;9.650;2023-11-19T09:31:22;2.63;;;2.42;;
46377;SDS011;32083;47.360;9.650;2023-11-19T09:33:47;4.35;;;3.20;;
46377;SDS011;32083;47.360;9.650;2023-11-19T09:36:16;5.93;;;5.05;;
46377;SDS011;32083;47.360;9.650;2023-11-19T09:38:43;7.78;;;5.18;;
46377;SDS011;32083;47.360;9.650;2023-11-19T09:41:09;3.65;;;3.28;;
46377;SDS011;32083;47.360;9.650;2023-11-19T09:43:39;3.92;;;2.60;;
46377;SDS011;32083;47.360;9.650;2023-11-19T09:46:07;5.97;;;3.03;;
46377;SDS011;32083;47.360;9.650;2023-11-19T09:48:39;5.28;;;4.47;;
46377;SDS011;32083;47.360;9.650;2023-11-19T09:51:08;4.82;;;3.75;;
46377;SDS011;32083;47.360;9.650;2023-11-19T09:53:35;5.93;;;4.30;;
46377;SDS011;32083;47.360;9.650;2023-11-19T09:56:02;5.10;;;3.97;;
46377;SDS011;32083;47.360;9.650;2023-11-19T09:58:29;5.45;;;4.05;;
46377;SDS011;32083;47.360;9.650;2023-11-19T10:00:56;4.68;;;3.85;;
46377;SDS011;32083;47.360;9.650;2023-11-19T10:03:27;6.53;;;3.78;;
46377;SDS011;32083;47.360;9.650;2023-11-19T10:06:03;5.18;;;3.85;;
46377;SDS011;32083;47.360;9.650;2023-11-19T10:08:29;6.40;;;4.15;;
46377;SDS011;32083;47.360;9.650;2023-11-19T10:10:55;6.03;;;4.07;;
46377;SDS011;32083;47.360;9.650;2023-11-19T10:13:25;5.30;;;3.45;;
46377;SDS011;32083;47.360;9.650;2023-11-19T10:15:52;4.75;;;3.03;;
46377;SDS011;32083;47.360;9.650;2023-11-19T10:18:18;3.67;;;2.30;;
46377;SDS011;32083;47.360;9.650;2023-11-19T10:20:48;3.13;;;2.28;;
46377;SDS011;32083;47.360;9.650;2023-11-19T10:23:14;2.30;;;2.10;;
46377;SDS011;32083;47.360;9.650;2023-11-19T10:25:40;3.05;;;2.75;;
46377;SDS011;32083;47.360;9.650;2023-11-19T10:28:06;2.88;;;2.55;;
46377;SDS011;32083;47.360;9.650;2023-11-19T10:30:32;2.72;;;2.30;;
46377;SDS011;32083;47.360;9.650;2023-11-19T10:33:03;2.83;;;2.13;;
46377;SDS011;32083;47.360;9.650;2023-11-19T10:35:56;2.80;;;2.28;;
46377;SDS011;32083;47.360;9.650;2023-11-19T10:38:23;2.47;;;2.22;;
46377;SDS011;32083;47.360;9.650;2023-11-19T10:40:52;3.70;;;2.55;;
46377;SDS011;32083;47.360;9.650;2023-11-19T10:43:20;3.70;;;2.40;;
46377;SDS011;32083;47.360;9.650;2023-11-19T10:45:50;2.85;;;2.45;;
46377;SDS011;32083;47.360;9.650;2023-11-19T10:48:16;3.95;;;2.88;;
46377;SDS011;32083;47.360;9.650;2023-11-19T10:50:43;3.08;;;2.22;;
46377;SDS011;32083;47.360;9.650;2023-11-19T10:53:11;3.75;;;2.83;;
46377;SDS011;32083;47.360;9.650;2023-11-19T10:55:41;4.57;;;2.80;;
46377;SDS011;32083;47.360;9.650;2023-11-19T10:58:10;2.40;;;1.98;;
46377;SDS011;32083;47.360;9.650;2023-11-19T11:00:45;3.70;;;2.28;;
46377;SDS011;32083;47.360;9.650;2023-11-19T11:05:43;3.67;;;1.73;;
46377;SDS011;32083;47.360;9.650;2023-11-19T11:08:12;2.58;;;1.92;;
46377;SDS011;32083;47.360;9.650;2023-11-19T11:10:45;3.70;;;2.60;;
46377;SDS011;32083;47.360;9.650;2023-11-19T11:13:20;3.55;;;2.35;;
46377;SDS011;32083;47.360;9.650;2023-11-19T11:15:48;3.92;;;2.15;;
46377;SDS011;32083;47.360;9.650;2023-11-19T11:18:15;2.63;;;2.00;;
46377;SDS011;32083;47.360;9.650;2023-11-19T11:20:44;2.58;;;1.88;;
46377;SDS011;32083;47.360;9.650;2023-11-19T11:31:44;2.25;;;1.73;;
46377;SDS011;32083;47.360;9.650;2023-11-19T11:39:55;2.97;;;2.15;;
46377;SDS011;32083;47.360;9.650;2023-11-19T11:50:11;2.50;;;1.98;;
46377;SDS011;32083;47.360;9.650;2023-11-19T11:58:13;3.15;;;2.63;;
46377;SDS011;32083;47.360;9.650;2023-11-19T12:00:42;3.70;;;3.40;;
46377;SDS011;32083;47.360;9.650;2023-11-19T12:03:08;3.97;;;2.35;;
46377;SDS011;32083;47.360;9.650;2023-11-19T12:05:48;4.15;;;2.15;;
46377;SDS011;32083;47.360;9.650;2023-11-19T12:08:15;2.85;;;1.75;;
46377;SDS011;32083;47.360;9.650;2023-11-19T12:13:12;2.58;;;1.90;;
46377;SDS011;32083;47.360;9.650;2023-11-19T12:18:23;2.00;;;1.35;;
46377;SDS011;32083;47.360;9.650;2023-11-19T12:20:51;2.50;;;2.05;;
46377;SDS011;32083;47.360;9.650;2023-11-19T12:23:17;10.73;;;6.90;;
46377;SDS011;32083;47.360;9.650;2023-11-19T12:25:43;3.47;;;2.38;;
46377;SDS011;32083;47.360;9.650;2023-11-19T12:28:13;2.75;;;2.15;;
46377;SDS011;32083;47.360;9.650;2023-11-19T12:30:40;6.30;;;4.28;;
46377;SDS011;32083;47.360;9.650;2023-11-19T12:33:09;3.72;;;2.97;;
46377;SDS011;32083;47.360;9.650;2023-11-19T12:35:42;5.90;;;3.25;;
46377;SDS011;32083;47.360;9.650;2023-11-19T12:38:22;11.00;;;6.78;;
46377;SDS011;32083;47.360;9.650;2023-11-19T12:41:02;6.78;;;4.50;;
46377;SDS011;32083;47.360;9.650;2023-11-19T12:43:29;3.50;;;2.72;;
46377;SDS011;32083;47.360;9.650;2023-11-19T12:45:55;4.20;;;2.60;;
46377;SDS011;32083;47.360;9.650;2023-11-19T12:48:21;4.47;;;2.13;;
46377;SDS011;32083;47.360;9.650;2023-11-19T12:51:05;3.60;;;2.20;;
46377;SDS011;32083;47.360;9.650;2023-11-19T12:53:46;4.13;;;2.28;;
46377;SDS011;32083;47.360;9.650;2023-11-19T12:56:24;3.55;;;3.25;;
46377;SDS011;32083;47.360;9.650;2023-11-19T12:58:50;5.30;;;3.55;;
46377;SDS011;32083;47.360;9.650;2023-11-19T13:01:17;5.97;;;3.97;;
46377;SDS011;32083;47.360;9.650;2023-11-19T13:03:46;3.75;;;2.85;;
46377;SDS011;32083;47.360;9.650;2023-11-19T13:06:14;4.45;;;2.75;;
46377;SDS011;32083;47.360;9.650;2023-11-19T13:08:48;4.30;;;2.67;;
46377;SDS011;32083;47.360;9.650;2023-11-19T13:11:32;3.72;;;3.28;;
46377;SDS011;32083;47.360;9.650;2023-11-19T13:14:01;5.20;;;3.40;;
46377;SDS011;32083;47.360;9.650;2023-11-19T13:16:33;4.20;;;3.33;;
46377;SDS011;32083;47.360;9.650;2023-11-19T13:19:02;4.82;;;3.50;;
46377;SDS011;32083;47.360;9.650;2023-11-19T13:21:28;4.10;;;2.55;;
46377;SDS011;32083;47.360;9.650;2023-11-19T13:23:55;2.58;;;2.30;;
46377;SDS011;32083;47.360;9.650;2023-11-19T13:26:21;3.47;;;3.03;;
46377;SDS011;32083;47.360;9.650;2023-11-19T13:28:47;3.03;;;2.65;;
46377;SDS011;32083;47.360;9.650;2023-11-19T13:31:14;5.25;;;3.35;;
46377;SDS011;32083;47.360;9.650;2023-11-19T13:33:41;8.13;;;5.43;;
46377;SDS011;32083;47.360;9.650;2023-11-19T13:36:07;5.10;;;3.70;;
46377;SDS011;32083;47.360;9.650;2023-11-19T13:38:34;6.65;;;4.22;;
46377;SDS011;32083;47.360;9.650;2023-11-19T13:41:01;6.82;;;4.68;;
46377;SDS011;32083;47.360;9.650;2023-11-19T13:43:27;6.72;;;4.82;;
46377;SDS011;32083;47.360;9.650;2023-11-19T13:45:56;5.28;;;3.78;;
46377;SDS011;32083;47.360;9.650;2023-11-19T13:48:23;3.35;;;3.05;;
46377;SDS011;32083;47.360;9.650;2023-11-19T13:50:49;5.95;;;3.15;;
46377;SDS011;32083;47.360;9.650;2023-11-19T13:53:16;4.40;;;2.90;;
46377;SDS011;32083;47.360;9.650;2023-11-19T13:55:42;4.50;;;2.30;;
46377;SDS011;32083;47.360;9.650;2023-11-19T13:58:08;3.42;;;2.75;;
46377;SDS011;32083;47.360;9.650;2023-11-19T14:00:35;2.80;;;2.50;;
46377;SDS011;32083;47.360;9.650;2023-11-19T14:03:01;2.65;;;2.17;;
46377;SDS011;32083;47.360;9.650;2023-11-19T14:05:28;3.08;;;2.33;;
46377;SDS011;32083;47.360;9.650;2023-11-19T14:07:54;2.05;;;1.85;;
46377;SDS011;32083;47.360;9.650;2023-11-19T14:10:22;3.22;;;2.00;;
46377;SDS011;32083;47.360;9.650;2023-11-19T14:12:48;5.53;;;3.10;;
46377;SDS011;32083;47.360;9.650;2023-11-19T14:15:15;4.47;;;2.03;;
46377;SDS011;32083;47.360;9.650;2023-11-19T14:17:43;3.97;;;2.38;;
46377;SDS011;32083;47.360;9.650;2023-11-19T14:20:10;4.47;;;1.95;;
46377;SDS011;32083;47.360;9.650;2023-11-19T14:22:42;2.53;;;1.90;;
46377;SDS011;32083;47.360;9.650;2023-11-19T14:25:09;3.58;;;2.10;;
46377;SDS011;32083;47.360;9.650;2023-11-19T14:27:36;2.38;;;2.13;;
46377;SDS011;32083;47.360;9.650;2023-11-19T14:30:06;3.67;;;2.97;;
46377;SDS011;32083;47.360;9.650;2023-11-19T14:32:35;3.58;;;2.97;;
46377;SDS011;32083;47.360;9.650;2023-11-19T14:35:01;5.25;;;3.42;;
46377;SDS011;32083;47.360;9.650;2023-11-19T14:37:28;4.03;;;2.88;;
46377;SDS011;32083;47.360;9.650;2023-11-19T14:39:56;13.50;;;9.80;;
46377;SDS011;32083;47.360;9.650;2023-11-19T14:42:25;5.30;;;4.30;;
46377;SDS011;32083;47.360;9.650;2023-11-19T14:44:52;3.88;;;3.28;;
46377;SDS011;32083;47.360;9.650;2023-11-19T14:47:18;5.32;;;3.67;;
46377;SDS011;32083;47.360;9.650;2023-11-19T14:49:45;6.53;;;4.05;;
46377;SDS011;32083;47.360;9.650;2023-11-19T14:52:11;4.75;;;3.47;;
46377;SDS011;32083;47.360;9.650;2023-11-19T14:54:37;4.85;;;3.55;;
46377;SDS011;32083;47.360;9.650;2023-11-19T14:57:06;5.22;;;3.75;;
46377;SDS011;32083;47.360;9.650;2023-11-19T14:59:35;5.32;;;3.75;;
46377;SDS011;32083;47.360;9.650;2023-11-19T15:02:02;4.07;;;3.58;;
46377;SDS011;32083;47.360;9.650;2023-11-19T15:04:29;5.80;;;4.70;;
46377;SDS011;32083;47.360;9.650;2023-11-19T15:06:58;5.47;;;4.15;;
46377;SDS011;32083;47.360;9.650;2023-11-19T15:09:25;4.57;;;3.30;;
46377;SDS011;32083;47.360;9.650;2023-11-19T15:11:54;9.52;;;7.32;;
46377;SDS011;32083;47.360;9.650;2023-11-19T15:14:20;7.68;;;5.68;;
46377;SDS011;32083;47.360;9.650;2023-11-19T15:16:47;4.60;;;4.20;;
46377;SDS011;32083;47.360;9.650;2023-11-19T15:19:16;4.40;;;3.63;;
46377;SDS011;32083;47.360;9.650;2023-11-19T15:21:42;5.43;;;4.55;;
46377;SDS011;32083;47.360;9.650;2023-11-19T15:24:09;5.70;;;4.38;;
46377;SDS011;32083;47.360;9.650;2023-11-19T15:26:36;78.68;;;53.13;;
46377;SDS011;32083;47.360;9.650;2023-11-19T15:29:03;9.02;;;6.45;;
46377;SDS011;32083;47.360;9.650;2023-11-19T15:31:29;4.40;;;3.92;;
46377;SDS011;32083;47.360;9.650;2023-11-19T15:33:56;4.65;;;3.42;;
46377;SDS011;32083;47.360;9.650;2023-11-19T15:36:22;5.55;;;3.80;;
46377;SDS011;32083;47.360;9.650;2023-11-19T15:38:48;6.00;;;3.42;;
46377;SDS011;32083;47.360;9.650;2023-11-19T15:41:14;17.52;;;12.32;;
46377;SDS011;32083;47.360;9.650;2023-11-19T15:43:40;9.82;;;6.45;;
46377;SDS011;32083;47.360;9.650;2023-11-19T15:46:09;9.02;;;7.28;;
46377;SDS011;32083;47.360;9.650;2023-11-19T15:48:38;7.28;;;6.40;;
46377;SDS011;32083;47.360;9.650;2023-11-19T15:51:04;7.40;;;5.80;;
46377;SDS011;32083;47.360;9.650;2023-11-19T15:53:30;12.60;;;9.05;;
46377;SDS011;32083;47.360;9.650;2023-11-19T15:55:57;14.27;;;11.50;;
46377;SDS011;32083;47.360;9.650;2023-11-19T15:58:23;9.55;;;8.13;;
46377;SDS011;32083;47.360;9.650;2023-11-19T16:00:49;9.20;;;7.38;;
46377;SDS011;32083;47.360;9.650;2023-11-19T16:03:15;9.45;;;6.82;;
46377;SDS011;32083;47.360;9.650;2023-11-19T16:05:41;11.50;;;7.70;;
46377;SDS011;32083;47.360;9.650;2023-11-19T16:08:07;8.80;;;7.05;;
46377;SDS011;32083;47.360;9.650;2023-11-19T16:10:35;16.80;;;8.95;;
46377;SDS011;32083;47.360;9.650;2023-11-19T16:13:07;9.52;;;7.75;;
46377;SDS011;32083;47.360;9.650;2023-11-19T16:15:34;11.80;;;10.23;;
46377;SDS011;32083;47.360;9.650;2023-11-19T16:18:00;13.55;;;12.25;;
46377;SDS011;32083;47.360;9.650;2023-11-19T16:20:26;11.50;;;8.93;;
46377;SDS011;32083;47.360;9.650;2023-11-19T16:22:51;10.43;;;9.32;;
46377;SDS011;32083;47.360;9.650;2023-11-19T16:25:17;14.35;;;12.30;;
46377;SDS011;32083;47.360;9.650;2023-11-19T16:27:44;16.08;;;12.90;;
46377;SDS011;32083;47.360;9.650;2023-11-19T16:30:10;17.38;;;13.27;;
46377;SDS011;32083;47.360;9.650;2023-11-19T16:32:43;9.88;;;8.73;;
46377;SDS011;32083;47.360;9.650;2023-11-19T16:35:16;14.20;;;12.27;;
46377;SDS011;32083;47.360;9.650;2023-11-19T16:37:42;11.02;;;8.18;;
46377;SDS011;32083;47.360;9.650;2023-11-19T16:40:08;10.98;;;7.68;;
46377;SDS011;32083;47.360;9.650;2023-11-19T16:42:37;10.18;;;5.97;;
46377;SDS011;32083;47.360;9.650;2023-11-19T16:45:04;10.55;;;6.38;;
46377;SDS011;32083;47.360;9.650;2023-11-19T16:47:31;6.93;;;5.10;;
46377;SDS011;32083;47.360;9.650;2023-11-19T16:49:57;9.48;;;5.82;;
46377;SDS011;32083;47.360;9.650;2023-11-19T16:52:23;7.50;;;5.70;;
46377;SDS011;32083;47.360;9.650;2023-11-19T16:54:50;7.00;;;5.32;;
46377;SDS011;32083;47.360;9.650;2023-11-19T16:57:19;11.15;;;6.80;;
46377;SDS011;32083;47.360;9.650;2023-11-19T16:59:47;9.52;;;6.15;;
46377;SDS011;32083;47.360;9.650;2023-11-19T17:02:15;9.52;;;6.00;;
46377;SDS011;32083;47.360;9.650;2023-11-19T17:04:41;11.32;;;6.35;;
46377;SDS011;32083;47.360;9.650;2023-11-19T17:07:07;8.43;;;5.55;;
46377;SDS011;32083;47.360;9.650;2023-11-19T17:09:34;12.93;;;7.28;;
46377;SDS011;32083;47.360;9.650;2023-11-19T17:12:00;13.63;;;9.05;;
46377;SDS011;32083;47.360;9.650;2023-11-19T17:14:26;7.75;;;6.10;;
46377;SDS011;32083;47.360;9.650;2023-11-19T17:16:52;10.50;;;7.20;;
46377;SDS011;32083;47.360;9.650;2023-11-19T17:19:18;13.40;;;9.43;;
46377;SDS011;32083;47.360;9.650;2023-11-19T17:21:44;14.00;;;10.75;;
46377;SDS011;32083;47.360;9.650;2023-11-19T17:24:11;14.52;;;11.05;;
46377;SDS011;32083;47.360;9.650;2023-11-19T17:26:37;12.63;;;10.32;;
46377;SDS011;32083;47.360;9.650;2023-11-19T17:29:03;15.70;;;12.40;;
46377;SDS011;32083;47.360;9.650;2023-11-19T17:31:33;17.00;;;14.45;;
46377;SDS011;32083;47.360;9.650;2023-11-19T17:34:01;18.42;;;13.65;;
46377;SDS011;32083;47.360;9.650;2023-11-19T17:36:27;25.42;;;18.48;;
46377;SDS011;32083;47.360;9.650;2023-11-19T17:38:53;21.30;;;18.83;;
46377;SDS011;32083;47.360;9.650;2023-11-19T17:41:19;16.17;;;11.70;;
46377;SDS011;32083;47.360;9.650;2023-11-19T17:43:44;14.23;;;11.00;;
46377;SDS011;32083;47.360;9.650;2023-11-19T17:46:10;11.55;;;9.82;;
46377;SDS011;32083;47.360;9.650;2023-11-19T17:48:36;13.65;;;12.00;;
46377;SDS011;32083;47.360;9.650;2023-11-19T17:51:02;11.68;;;9.75;;
46377;SDS011;32083;47.360;9.650;2023-11-19T17:53:29;13.15;;;10.20;;
46377;SDS011;32083;47.360;9.650;2023-11-19T17:55:57;17.00;;;13.10;;
46377;SDS011;32083;47.360;9.650;2023-11-19T17:58:23;20.38;;;14.48;;
46377;SDS011;32083;47.360;9.650;2023-11-19T18:00:49;17.35;;;13.38;;
46377;SDS011;32083;47.360;9.650;2023-11-19T18:03:15;16.25;;;13.55;;
46377;SDS011;32083;47.360;9.650;2023-11-19T18:05:42;17.45;;;13.35;;
46377;SDS011;32083;47.360;9.650;2023-11-19T18:08:08;19.20;;;14.05;;
46377;SDS011;32083;47.360;9.650;2023-11-19T18:10:37;17.35;;;12.93;;
46377;SDS011;32083;47.360;9.650;2023-11-19T18:13:03;17.65;;;14.00;;
46377;SDS011;32083;47.360;9.650;2023-11-19T18:15:29;17.77;;;11.95;;
46377;SDS011;32083;47.360;9.650;2023-11-19T18:17:54;12.80;;;10.68;;
46377;SDS011;32083;47.360;9.650;2023-11-19T18:20:21;14.73;;;11.57;;
46377;SDS011;32083;47.360;9.650;2023-11-19T18:22:47;17.58;;;12.85;;
46377;SDS011;32083;47.360;9.650;2023-11-19T18:25:14;24.52;;;19.48;;
46377;SDS011;32083;47.360;9.650;2023-11-19T18:27:42;15.52;;;13.00;;
46377;SDS011;32083;47.360;9.650;2023-11-19T18:30:08;21.73;;;17.55;;
46377;SDS011;32083;47.360;9.650;2023-11-19T18:32:35;10.30;;;9.30;;
46377;SDS011;32083;47.360;9.650;2023-11-19T18:35:02;12.77;;;10.48;;
46377;SDS011;32083;47.360;9.650;2023-11-19T18:37:30;11.48;;;8.60;;
46377;SDS011;32083;47.360;9.650;2023-11-19T18:39:56;11.20;;;9.05;;
46377;SDS011;32083;47.360;9.650;2023-11-19T18:42:22;10.63;;;8.38;;
46377;SDS011;32083;47.360;9.650;2023-11-19T18:44:48;8.88;;;7.82;;
46377;SDS011;32083;47.360;9.650;2023-11-19T18:47:14;8.63;;;7.50;;
46377;SDS011;32083;47.360;9.650;2023-11-19T18:49:39;11.05;;;7.88;;
46377;SDS011;32083;47.360;9.650;2023-11-19T18:52:05;8.88;;;7.90;;
46377;SDS011;32083;47.360;9.650;2023-11-19T18:54:32;11.93;;;7.15;;
46377;SDS011;32083;47.360;9.650;2023-11-19T18:57:00;6.03;;;5.30;;
46377;SDS011;32083;47.360;9.650;2023-11-19T18:59:26;8.35;;;6.40;;
46377;SDS011;32083;47.360;9.650;2023-11-19T19:01:52;9.57;;;6.25;;
46377;SDS011;32083;47.360;9.650;2023-11-19T19:04:18;6.38;;;5.70;;
46377;SDS011;32083;47.360;9.650;2023-11-19T19:06:44;6.65;;;5.95;;
46377;SDS011;32083;47.360;9.650;2023-11-19T19:09:14;7.78;;;7.00;;
46377;SDS011;32083;47.360;9.650;2023-11-19T19:11:43;11.40;;;7.47;;
46377;SDS011;32083;47.360;9.650;2023-11-19T19:14:09;10.38;;;8.48;;
46377;SDS011;32083;47.360;9.650;2023-11-19T19:16:38;8.40;;;7.60;;
46377;SDS011;32083;47.360;9.650;2023-11-19T19:19:05;11.90;;;7.95;;
46377;SDS011;32083;47.360;9.650;2023-11-19T19:21:31;10.70;;;9.07;;
46377;SDS011;32083;47.360;9.650;2023-11-19T19:23:57;11.95;;;8.63;;
46377;SDS011;32083;47.360;9.650;2023-11-19T19:26:31;11.73;;;8.88;;
46377;SDS011;32083;47.360;9.650;2023-11-19T19:28:57;12.23;;;8.85;;
46377;SDS011;32083;47.360;9.650;2023-11-19T19:31:23;10.77;;;8.10;;
46377;SDS011;32083;47.360;9.650;2023-11-19T19:33:50;9.13;;;6.28;;
46377;SDS011;32083;47.360;9.650;2023-11-19T19:36:29;7.72;;;6.72;;
46377;SDS011;32083;47.360;9.650;2023-11-19T19:38:57;9.23;;;6.07;;
46377;SDS011;32083;47.360;9.650;2023-11-19T19:41:23;10.40;;;7.97;;
46377;SDS011;32083;47.360;9.650;2023-11-19T19:43:51;6.68;;;5.88;;
46377;SDS011;32083;47.360;9.650;2023-11-19T19:46:17;7.25;;;6.30;;
46377;SDS011;32083;47.360;9.650;2023-11-19T19:48:44;6.97;;;6.13;;
46377;SDS011;32083;47.360;9.650;2023-11-19T19:51:10;6.97;;;6.30;;
46377;SDS011;32083;47.360;9.650;2023-11-19T19:53:36;8.57;;;6.13;;
46377;SDS011;32083;47.360;9.650;2023-11-19T19:56:03;6.43;;;5.82;;
46377;SDS011;32083;47.360;9.650;2023-11-19T19:58:30;6.20;;;5.50;;